ADDS TAF Board (Experimental) INFO

IDs: Format: Expanded Condensed

Updated at: 1337 UTC 19 Dec 2014

KTPA - Tampa Intl Arpt, FL, US

Issued at 1137 UTC 19 Dec 2014
Time1253Z19/14Z19/15Z19/16Z19/17Z19/18Z19/19Z19/20Z19/21Z19/22Z19/23Z20/00Z20/01Z20/02Z
TypeOBSPRVLPRVLPRVLPRVLPRVLPRVLPRVLPRVLPRVLPRVLPRVLPRVLPRVL
VIS9>6>6>6>6>6>6>6>6>6>6>6>6>6
CIG--250250250250250250250250250250250250250
CoverSCTBKNBKNBKNBKNBKNBKNBKNBKNBKNBKNBKNBKNBKN
FltCat--VFRVFRVFRVFRVFRVFRVFRVFRVFRVFRVFRVFRVFR
WX----------------------------
WDir3605050505050240240240330330330VRBVRB
WSpd64444455544433
WGst----------------------------
R01/19
XWnd0-3-3-3-3-3444222VRBVRB
HWnd633333-3-3-3333VRBVRB
R10/28
XWnd633333-3-3-3333VRBVRB
HWnd-033333-4-4-4-2-2-2VRBVRB
Raw TAF
KTPA 191137Z 1912/2012 05004KT P6SM FEW150 BKN250
  FM191900 24005KT P6SM FEW150 BKN250
  FM192200 33004KT P6SM FEW150 BKN250
  FM200100 VRB03KT P6SM FEW150 BKN250


Raw METAR
KTPA 191253Z 36006KT 9SM FEW150 SCT250 11/08 A3014 RMK AO2 SLP206 T01110083

TAF Board Legend

Hazard VFR MVFR IFR LIFR
Visibility (sm) >5 3≤X≤5 1≤X<3 <1
Ceiling (100 ft) >30 10≤X≤30 5≤X<10 <5
Wind Speed (kt) <10 10≤X<20 20≤X<30 ≥30
Wind Gust (kt) <15 15≤X<25 25≤X<35 ≥35
Weather No Wx Reported VCTS,-TS,-FZRA TS,FZRA +TS,+FZRA


Page loaded:  13:37 UTC  |   05:37 AM Pacific  |   06:37 AM Mountain  |   07:37 AM Central  |   08:37 AM Eastern

 

ADVISORIES

FORECASTS

FORECASTS

OBSERVATIONS

USER TOOLS

ABOUT US